createdAt,value
2019-02-14T00:00:07.748Z,32.48
2019-02-14T00:00:41.643Z,33.25
2019-02-14T00:01:14.155Z,31.27
2019-02-14T00:01:48.120Z,33.30
2019-02-14T00:02:22.322Z,33.78
2019-02-14T00:02:54.809Z,33.90
2019-02-14T00:03:28.076Z,36.10
2019-02-14T00:04:00.591Z,31.07
2019-02-14T00:04:33.401Z,33.70
2019-02-14T00:05:06.171Z,33.38
2019-02-14T00:05:39.123Z,34.15
2019-02-14T00:06:12.175Z,32.55
2019-02-14T00:06:44.664Z,34.38
2019-02-14T00:07:17.757Z,34.15
2019-02-14T00:07:50.628Z,34.90
2019-02-14T00:08:23.499Z,34.05
2019-02-14T00:08:56.446Z,34.13
2019-02-14T00:09:28.975Z,34.43
2019-02-14T00:10:01.463Z,33.42
2019-02-14T00:10:34.733Z,32.90
2019-02-14T00:11:07.619Z,33.60
2019-02-14T00:11:40.108Z,35.80
2019-02-14T00:12:12.865Z,31.50
2019-02-14T00:12:45.361Z,32.25
2019-02-14T00:13:18.212Z,33.83
2019-02-14T00:13:50.686Z,32.48
2019-02-14T00:14:23.179Z,32.50
2019-02-14T00:14:55.696Z,32.60
2019-02-14T00:15:28.190Z,33.30
2019-02-14T00:16:00.692Z,31.20
2019-02-14T00:16:33.171Z,35.80
2019-02-14T00:17:05.764Z,33.38
2019-02-14T00:17:38.260Z,32.17
2019-02-14T00:18:10.747Z,33.50
2019-02-14T00:18:43.525Z,33.90
2019-02-14T00:19:16.015Z,31.65
2019-02-14T00:19:48.930Z,33.38
2019-02-14T00:20:21.438Z,33.63
2019-02-14T00:20:54.308Z,32.13
2019-02-14T00:21:26.784Z,31.80
2019-02-14T00:21:59.551Z,32.48
2019-02-14T00:22:32.571Z,33.50
2019-02-14T00:23:05.362Z,32.60
2019-02-14T00:23:37.871Z,32.95
2019-02-14T00:24:10.750Z,30.43
2019-02-14T00:24:43.245Z,31.77
2019-02-14T00:25:15.728Z,33.05
2019-02-14T00:25:48.249Z,31.97
2019-02-14T00:26:21.022Z,32.83
2019-02-14T00:26:53.513Z,33.67
2019-02-14T00:27:25.996Z,30.80
2019-02-14T00:27:58.474Z,33.23
2019-02-14T00:28:31.157Z,34.73
2019-02-14T00:29:03.936Z,34.25
2019-02-14T00:29:36.424Z,34.92
2019-02-14T00:30:09.147Z,34.03
2019-02-14T00:30:41.651Z,34.60
2019-02-14T00:31:14.192Z,34.40
2019-02-14T00:31:46.950Z,31.25
2019-02-14T00:32:19.445Z,32.70
2019-02-14T00:32:52.210Z,32.40
2019-02-14T00:33:24.705Z,34.33
2019-02-14T00:33:57.462Z,33.45
2019-02-14T00:34:29.967Z,33.28
2019-02-14T00:35:02.466Z,35.50
2019-02-14T00:35:35.231Z,32.55
2019-02-14T00:36:07.703Z,33.95
2019-02-14T00:36:40.514Z,34.58
2019-02-14T00:37:12.991Z,34.43
2019-02-14T00:37:45.466Z,32.35
2019-02-14T00:38:18.314Z,33.65
2019-02-14T00:38:50.808Z,33.18
2019-02-14T00:39:23.308Z,33.30
2019-02-14T00:39:56.053Z,33.28
2019-02-14T00:40:28.549Z,34.23
2019-02-14T00:41:01.172Z,34.05
2019-02-14T00:41:33.656Z,34.67
2019-02-14T00:42:06.435Z,34.15
2019-02-14T00:42:39.383Z,35.92
2019-02-14T00:43:11.870Z,36.00
2019-02-14T00:43:44.990Z,35.55
2019-02-14T00:44:17.486Z,34.92
2019-02-14T00:44:50.262Z,34.27
2019-02-14T00:45:22.746Z,33.78
2019-02-14T00:45:55.580Z,32.78
2019-02-14T00:46:28.194Z,35.00
2019-02-14T00:47:01.245Z,34.95
2019-02-14T00:47:33.772Z,34.78
2019-02-14T00:48:06.271Z,33.80
2019-02-14T00:48:38.746Z,32.85
2019-02-14T00:49:11.505Z,35.30
2019-02-14T00:49:43.993Z,34.33
2019-02-14T00:50:16.459Z,34.78
2019-02-14T00:50:48.939Z,35.85
2019-02-14T00:51:21.428Z,35.80
2019-02-14T00:51:54.204Z,35.15
2019-02-14T00:52:27.369Z,34.58
2019-02-14T00:52:59.897Z,34.30
2019-02-14T00:53:32.646Z,35.52
2019-02-14T00:54:05.132Z,34.08
2019-02-14T00:54:37.625Z,34.15
2019-02-14T00:55:10.108Z,35.33
2019-02-14T00:55:42.599Z,35.35
2019-02-14T00:56:15.078Z,35.73
2019-02-14T00:56:47.573Z,36.58
2019-02-14T00:57:20.066Z,35.33
2019-02-14T00:57:53.051Z,34.70
2019-02-14T00:58:25.880Z,36.03
2019-02-14T00:58:58.351Z,37.70
2019-02-14T00:59:31.602Z,35.45
2019-02-14T01:00:05.973Z,33.50
2019-02-14T01:00:38.984Z,35.28
2019-02-14T01:01:11.746Z,34.45
2019-02-14T01:01:44.235Z,36.28
2019-02-14T01:02:16.751Z,34.35
2019-02-14T01:02:49.239Z,35.28
2019-02-14T01:03:21.723Z,32.55
2019-02-14T01:03:54.234Z,36.65
2019-02-14T01:04:26.719Z,35.20
2019-02-14T01:04:59.209Z,33.33
2019-02-14T01:05:33.700Z,36.15
2019-02-14T01:06:06.275Z,35.28
2019-02-14T01:06:38.776Z,35.43
2019-02-14T01:07:11.653Z,35.33
2019-02-14T01:07:44.138Z,35.85
2019-02-14T01:08:16.616Z,36.08
2019-02-14T01:08:49.109Z,36.77
2019-02-14T01:09:21.634Z,35.28
2019-02-14T01:09:54.374Z,34.88
2019-02-14T01:10:26.856Z,36.03
2019-02-14T01:10:59.629Z,34.20
2019-02-14T01:11:32.870Z,36.45
2019-02-14T01:12:06.315Z,35.10
2019-02-14T01:12:38.807Z,38.33
2019-02-14T01:13:11.564Z,35.73
2019-02-14T01:13:44.047Z,35.13
2019-02-14T01:14:16.518Z,34.08
2019-02-14T01:14:49.311Z,32.40
2019-02-14T01:15:23.395Z,35.73
2019-02-14T01:15:55.989Z,37.15
2019-02-14T01:16:28.481Z,34.30
2019-02-14T01:17:01.423Z,33.75
2019-02-14T01:17:33.960Z,33.40
2019-02-14T01:18:06.457Z,33.33
2019-02-14T01:18:39.065Z,35.63
2019-02-14T01:19:11.839Z,35.45
2019-02-14T01:19:44.664Z,36.08
2019-02-14T01:20:17.199Z,36.03
2019-02-14T01:20:50.077Z,35.00
2019-02-14T01:21:22.558Z,34.80
2019-02-14T01:21:55.178Z,36.03
2019-02-14T01:22:27.664Z,33.70
2019-02-14T01:23:00.135Z,35.05
2019-02-14T01:23:32.624Z,35.45
2019-02-14T01:24:05.100Z,34.40
2019-02-14T01:24:37.864Z,34.65
2019-02-14T01:25:10.357Z,35.25
2019-02-14T01:25:42.871Z,34.60
2019-02-14T01:26:15.991Z,33.18
2019-02-14T01:26:49.107Z,34.10
2019-02-14T01:27:21.807Z,33.60
2019-02-14T01:27:54.223Z,33.58
2019-02-14T01:28:27.414Z,35.30
2019-02-14T01:29:00.701Z,35.38
2019-02-14T01:29:33.320Z,32.73
2019-02-14T01:30:06.815Z,32.93
2019-02-14T01:30:39.289Z,34.63
2019-02-14T01:31:11.945Z,34.25
2019-02-14T01:31:45.111Z,34.00
2019-02-14T01:32:17.578Z,34.25
2019-02-14T01:32:50.081Z,33.08
2019-02-14T01:33:22.838Z,32.35
2019-02-14T01:33:55.315Z,33.63
2019-02-14T01:34:27.801Z,31.87
2019-02-14T01:35:00.299Z,33.73
2019-02-14T01:35:32.784Z,32.90
2019-02-14T01:36:05.650Z,31.52
2019-02-14T01:36:38.464Z,31.35
2019-02-14T01:37:11.987Z,33.92
2019-02-14T01:37:44.473Z,31.90
2019-02-14T01:38:16.963Z,31.52
2019-02-14T01:38:49.446Z,32.30
2019-02-14T01:39:21.942Z,32.67
2019-02-14T01:39:54.723Z,33.55
2019-02-14T01:40:27.478Z,30.97
2019-02-14T01:41:00.081Z,32.65
2019-02-14T01:41:32.574Z,32.17
2019-02-14T01:42:05.098Z,33.48
2019-02-14T01:42:37.970Z,31.55
2019-02-14T01:43:10.399Z,33.73
2019-02-14T01:43:43.221Z,32.28
2019-02-14T01:44:15.697Z,31.35
2019-02-14T01:44:48.182Z,32.10
2019-02-14T01:45:20.675Z,33.90
2019-02-14T01:45:53.174Z,30.40
2019-02-14T01:46:25.659Z,31.85
2019-02-14T01:46:58.156Z,32.10
2019-02-14T01:47:30.944Z,31.48
2019-02-14T01:48:03.419Z,30.70
2019-02-14T01:48:35.915Z,31.70
2019-02-14T01:49:08.382Z,30.55
2019-02-14T01:49:40.879Z,30.50
2019-02-14T01:50:13.649Z,31.17
2019-02-14T01:50:46.148Z,33.08
2019-02-14T01:51:18.617Z,30.62
2019-02-14T01:51:51.391Z,31.35
2019-02-14T01:52:24.164Z,28.62
2019-02-14T01:52:56.973Z,31.55
2019-02-14T01:53:29.441Z,29.85
2019-02-14T01:54:01.934Z,31.30
2019-02-14T01:54:34.418Z,30.85
2019-02-14T01:55:06.906Z,29.30
2019-02-14T01:55:39.805Z,29.23
2019-02-14T01:56:12.291Z,29.57
2019-02-14T01:56:45.055Z,29.23
2019-02-14T01:57:17.546Z,29.63
2019-02-14T01:57:50.727Z,28.62
2019-02-14T01:58:23.238Z,27.02
2019-02-14T01:58:56.048Z,28.17
2019-02-14T01:59:28.527Z,30.15
2019-02-14T02:00:01.002Z,27.85
2019-02-14T02:00:33.591Z,27.13
2019-02-14T02:01:06.345Z,29.60
2019-02-14T02:01:39.181Z,27.95
2019-02-14T02:02:11.677Z,28.60
2019-02-14T02:02:44.496Z,28.80
2019-02-14T02:03:17.020Z,27.77
2019-02-14T02:03:49.822Z,27.80
2019-02-14T02:04:22.669Z,27.58
2019-02-14T02:04:55.168Z,28.67
2019-02-14T02:05:27.742Z,29.27
2019-02-14T02:06:00.227Z,27.98
2019-02-14T02:06:32.751Z,29.52
2019-02-14T02:07:05.415Z,28.05
2019-02-14T02:07:37.890Z,28.65
2019-02-14T02:08:10.708Z,29.42
2019-02-14T02:08:43.586Z,27.82
2019-02-14T02:09:16.120Z,30.05
2019-02-14T02:09:48.591Z,28.67
2019-02-14T02:10:21.398Z,28.60
2019-02-14T02:10:54.172Z,29.05
2019-02-14T02:11:26.672Z,28.90
2019-02-14T02:11:59.413Z,28.38
2019-02-14T02:12:31.890Z,29.12
2019-02-14T02:13:05.283Z,28.77
2019-02-14T02:13:38.222Z,28.42
2019-02-14T02:14:10.697Z,28.15
2019-02-14T02:14:43.206Z,31.20
2019-02-14T02:15:15.715Z,30.10
2019-02-14T02:15:48.573Z,29.37
2019-02-14T02:16:21.038Z,29.87
2019-02-14T02:16:54.195Z,29.25
2019-02-14T02:17:27.410Z,30.72
2019-02-14T02:17:59.903Z,30.50
2019-02-14T02:18:32.590Z,28.75
2019-02-14T02:19:05.068Z,31.17
2019-02-14T02:19:37.836Z,29.92
2019-02-14T02:20:10.350Z,31.45
2019-02-14T02:20:43.478Z,29.07
2019-02-14T02:21:16.243Z,31.70
2019-02-14T02:21:49.129Z,30.82
2019-02-14T02:22:21.909Z,30.10
2019-02-14T02:22:54.388Z,31.75
2019-02-14T02:23:26.855Z,30.37
2019-02-14T02:23:59.676Z,31.77
2019-02-14T02:24:32.563Z,31.93
2019-02-14T02:25:05.467Z,31.57
2019-02-14T02:25:37.974Z,33.02
2019-02-14T02:26:10.740Z,32.53
2019-02-14T02:26:43.235Z,30.75
2019-02-14T02:27:15.873Z,32.10
2019-02-14T02:27:48.346Z,31.35
2019-02-14T02:28:20.827Z,31.75
2019-02-14T02:28:53.327Z,31.02
2019-02-14T02:29:26.434Z,30.85
2019-02-14T02:29:59.263Z,30.15
2019-02-14T02:30:31.747Z,32.95
2019-02-14T02:31:04.316Z,32.55
2019-02-14T02:31:36.819Z,31.60
2019-02-14T02:32:09.592Z,31.90
2019-02-14T02:32:42.417Z,33.23
2019-02-14T02:33:14.897Z,32.42
2019-02-14T02:33:47.686Z,34.03
2019-02-14T02:34:20.171Z,32.70
2019-02-14T02:34:52.943Z,33.67
2019-02-14T02:35:25.896Z,33.92
2019-02-14T02:36:00.432Z,33.50
2019-02-14T02:36:32.749Z,32.90
2019-02-14T02:37:05.222Z,32.55
2019-02-14T02:37:37.694Z,32.63
2019-02-14T02:38:10.195Z,31.62
2019-02-14T02:38:42.991Z,32.45
2019-02-14T02:39:15.798Z,34.15
2019-02-14T02:39:48.226Z,31.93
2019-02-14T02:40:20.715Z,32.05
2019-02-14T02:40:53.538Z,34.90
2019-02-14T02:41:26.037Z,34.05
2019-02-14T02:41:58.563Z,35.03
2019-02-14T02:42:31.341Z,33.13
2019-02-14T02:43:03.811Z,33.45
2019-02-14T02:43:37.120Z,34.50
2019-02-14T02:44:09.949Z,34.03
2019-02-14T02:44:42.818Z,33.28
2019-02-14T02:45:15.310Z,34.70
2019-02-14T02:45:47.800Z,33.38
2019-02-14T02:46:20.574Z,32.53
2019-02-14T02:46:53.044Z,35.03
2019-02-14T02:47:26.165Z,34.20
2019-02-14T02:47:58.647Z,33.40
2019-02-14T02:48:31.139Z,34.05
2019-02-14T02:49:03.617Z,33.73
2019-02-14T02:49:36.078Z,34.40
2019-02-14T02:50:10.350Z,35.33
2019-02-14T02:50:42.855Z,32.60
2019-02-14T02:51:15.577Z,34.98
2019-02-14T02:51:48.044Z,34.18
2019-02-14T02:52:20.514Z,34.60
2019-02-14T02:52:53.021Z,33.73
2019-02-14T02:53:25.511Z,35.85
2019-02-14T02:53:58.282Z,36.25
2019-02-14T02:54:31.040Z,35.00
2019-02-14T02:55:03.836Z,35.88
2019-02-14T02:55:36.301Z,35.95
2019-02-14T02:56:09.054Z,34.15
2019-02-14T02:56:41.553Z,36.68
2019-02-14T02:57:14.178Z,35.78
2019-02-14T02:57:46.809Z,34.92
2019-02-14T02:58:19.611Z,34.23
2019-02-14T02:58:52.397Z,36.70
2019-02-14T02:59:25.198Z,37.20
2019-02-14T02:59:57.692Z,36.15
2019-02-14T03:00:30.175Z,35.80
2019-02-14T03:01:03.060Z,36.35
2019-02-14T03:01:35.814Z,34.88
2019-02-14T03:02:08.582Z,36.95
2019-02-14T03:02:41.434Z,36.77
2019-02-14T03:03:14.280Z,36.20
2019-02-14T03:03:47.074Z,35.78
2019-02-14T03:04:19.870Z,34.67
2019-02-14T03:04:52.639Z,34.45
2019-02-14T03:05:25.116Z,36.00
2019-02-14T03:05:57.612Z,35.50
2019-02-14T03:06:30.099Z,34.43
2019-02-14T03:07:02.583Z,37.70
2019-02-14T03:07:35.346Z,37.08
2019-02-14T03:08:08.184Z,38.13
2019-02-14T03:08:40.667Z,35.58
2019-02-14T03:09:13.191Z,40.00
2019-02-14T03:09:45.862Z,36.42
2019-02-14T03:10:18.332Z,38.42
2019-02-14T03:10:50.815Z,35.92
2019-02-14T03:11:23.790Z,36.85
2019-02-14T03:11:56.271Z,35.78
2019-02-14T03:12:29.046Z,39.08
2019-02-14T03:13:01.803Z,35.38
2019-02-14T03:13:34.295Z,36.93
2019-02-14T03:14:06.857Z,35.35
2019-02-14T03:14:39.370Z,37.88
2019-02-14T03:15:12.206Z,37.88
2019-02-14T03:15:45.049Z,37.42
2019-02-14T03:16:17.526Z,36.77
2019-02-14T03:16:50.399Z,36.77
2019-02-14T03:17:22.870Z,35.35
2019-02-14T03:17:55.633Z,37.08
2019-02-14T03:18:28.857Z,35.63
2019-02-14T03:19:01.390Z,36.90
2019-02-14T03:19:33.832Z,35.40
2019-02-14T03:20:08.066Z,35.28
2019-02-14T03:20:40.560Z,36.20
2019-02-14T03:21:13.041Z,38.45
2019-02-14T03:21:45.791Z,36.95
2019-02-14T03:22:18.275Z,35.95
2019-02-14T03:22:51.219Z,36.38
2019-02-14T03:23:23.692Z,35.92
2019-02-14T03:23:56.215Z,37.53
2019-02-14T03:24:29.057Z,36.30
2019-02-14T03:25:01.812Z,35.15
2019-02-14T03:25:35.692Z,36.05
2019-02-14T03:26:08.688Z,35.23
2019-02-14T03:26:41.164Z,33.98
2019-02-14T03:27:13.918Z,34.88
2019-02-14T03:27:46.696Z,36.83
2019-02-14T03:28:19.198Z,37.50
2019-02-14T03:28:51.674Z,35.17
2019-02-14T03:29:24.716Z,34.58
2019-02-14T03:29:57.197Z,35.15
2019-02-14T03:30:29.692Z,36.45
2019-02-14T03:31:02.207Z,36.98
2019-02-14T03:31:34.987Z,37.55
2019-02-14T03:32:07.463Z,33.95
2019-02-14T03:32:40.255Z,35.48
2019-02-14T03:33:12.732Z,36.63
2019-02-14T03:33:45.215Z,35.73
2019-02-14T03:34:18.363Z,35.13
2019-02-14T03:34:51.128Z,35.60
2019-02-14T03:35:23.607Z,37.88
2019-02-14T03:35:56.091Z,34.05
2019-02-14T03:36:28.910Z,34.20
2019-02-14T03:37:01.677Z,35.08
2019-02-14T03:37:34.322Z,34.00
2019-02-14T03:38:07.223Z,34.80
2019-02-14T03:38:39.714Z,35.00
2019-02-14T03:39:12.216Z,35.00
2019-02-14T03:39:45.091Z,33.13
2019-02-14T03:40:17.572Z,35.65
2019-02-14T03:40:50.340Z,37.30
2019-02-14T03:41:22.820Z,34.08
2019-02-14T03:41:55.602Z,33.55
2019-02-14T03:42:28.079Z,35.95
2019-02-14T03:43:00.853Z,34.15
2019-02-14T03:43:33.667Z,33.33
2019-02-14T03:44:06.549Z,32.67
2019-02-14T03:44:39.293Z,35.08
2019-02-14T03:45:14.055Z,36.17
2019-02-14T03:45:46.554Z,35.95
2019-02-14T03:46:19.045Z,34.88
2019-02-14T03:46:51.523Z,35.83
2019-02-14T03:47:24.037Z,35.63
2019-02-14T03:47:56.830Z,33.83
2019-02-14T03:48:29.305Z,36.33
2019-02-14T03:49:02.159Z,33.63
2019-02-14T03:49:34.656Z,33.80
2019-02-14T03:50:07.507Z,34.83
2019-02-14T03:50:39.994Z,32.48
2019-02-14T03:51:12.832Z,32.65
2019-02-14T03:51:45.574Z,32.65
2019-02-14T03:52:18.062Z,33.90
2019-02-14T03:52:50.573Z,35.20
2019-02-14T03:53:23.426Z,33.53
2019-02-14T03:53:56.850Z,34.10
2019-02-14T03:54:29.345Z,33.35
2019-02-14T03:55:01.978Z,34.63
2019-02-14T03:55:34.468Z,33.90
2019-02-14T03:56:07.248Z,32.30
2019-02-14T03:56:40.286Z,33.15
2019-02-14T03:57:12.781Z,34.13
2019-02-14T03:57:45.595Z,33.80
2019-02-14T03:58:18.099Z,34.10
2019-02-14T03:58:51.185Z,33.25
2019-02-14T03:59:23.969Z,31.33
2019-02-14T03:59:56.464Z,34.27
2019-02-14T04:00:28.940Z,31.33
2019-02-14T04:01:01.816Z,31.30
2019-02-14T04:01:34.599Z,31.80
2019-02-14T04:02:07.391Z,33.02
2019-02-14T04:02:40.628Z,31.10
2019-02-14T04:03:13.428Z,31.05
2019-02-14T04:03:45.913Z,32.80
2019-02-14T04:04:18.411Z,32.05
2019-02-14T04:04:50.915Z,31.62
2019-02-14T04:05:23.442Z,32.88
2019-02-14T04:05:56.227Z,31.55
2019-02-14T04:06:28.716Z,30.72
2019-02-14T04:07:01.828Z,32.35
2019-02-14T04:07:34.772Z,30.92
2019-02-14T04:08:07.253Z,32.58
2019-02-14T04:08:40.037Z,32.08
2019-02-14T04:09:12.550Z,28.85
2019-02-14T04:09:45.044Z,30.35
2019-02-14T04:10:17.867Z,29.30
2019-02-14T04:10:50.359Z,30.82
2019-02-14T04:11:22.836Z,30.37
2019-02-14T04:11:55.601Z,31.90
2019-02-14T04:12:28.082Z,31.40
2019-02-14T04:13:00.888Z,32.17
2019-02-14T04:13:33.376Z,29.87
2019-02-14T04:14:05.872Z,30.92
2019-02-14T04:14:38.399Z,30.72
2019-02-14T04:15:12.410Z,30.52
2019-02-14T04:15:45.168Z,31.35
2019-02-14T04:16:17.949Z,29.20
2019-02-14T04:16:50.444Z,29.37
2019-02-14T04:17:22.915Z,29.67
2019-02-14T04:17:55.395Z,30.08
2019-02-14T04:18:28.458Z,29.48
2019-02-14T04:19:01.243Z,28.38
2019-02-14T04:19:34.031Z,28.98
2019-02-14T04:20:06.846Z,31.05
2019-02-14T04:20:39.606Z,31.52
2019-02-14T04:21:12.228Z,29.72
2019-02-14T04:21:44.698Z,30.90
2019-02-14T04:22:17.199Z,29.35
2019-02-14T04:22:49.682Z,27.80
2019-02-14T04:23:22.461Z,29.65
2019-02-14T04:23:55.327Z,27.85
2019-02-14T04:24:28.095Z,27.82
2019-02-14T04:25:00.870Z,29.05
2019-02-14T04:25:33.372Z,29.75
2019-02-14T04:26:05.856Z,29.63
2019-02-14T04:26:38.326Z,27.93
2019-02-14T04:27:11.098Z,28.07
2019-02-14T04:27:44.127Z,29.80
2019-02-14T04:28:16.598Z,29.27
2019-02-14T04:28:49.085Z,29.32
2019-02-14T04:29:21.570Z,31.12
2019-02-14T04:29:54.057Z,30.70
2019-02-14T04:30:26.533Z,30.48
2019-02-14T04:30:59.065Z,32.67
2019-02-14T04:31:31.822Z,34.13
2019-02-14T04:32:04.601Z,29.15
2019-02-14T04:32:37.237Z,32.35
2019-02-14T04:33:09.775Z,31.75
2019-02-14T04:33:42.194Z,29.40
2019-02-14T04:34:14.678Z,29.75
2019-02-14T04:34:47.157Z,28.85
2019-02-14T04:35:19.644Z,30.40
2019-02-14T04:35:52.132Z,30.37
2019-02-14T04:36:24.648Z,27.58
2019-02-14T04:36:57.135Z,29.75
2019-02-14T04:37:30.266Z,30.48
2019-02-14T04:38:03.194Z,31.20
2019-02-14T04:38:36.407Z,28.32
2019-02-14T04:39:09.172Z,31.80
2019-02-14T04:39:41.650Z,28.98
2019-02-14T04:40:14.476Z,29.87
2019-02-14T04:40:46.980Z,31.50
2019-02-14T04:41:19.439Z,29.80
2019-02-14T04:41:52.387Z,31.10
2019-02-14T04:42:24.879Z,29.48
2019-02-14T04:42:57.362Z,31.45
2019-02-14T04:43:30.194Z,29.85
2019-02-14T04:44:02.684Z,30.82
2019-02-14T04:44:35.505Z,30.48
2019-02-14T04:45:08.142Z,29.42
2019-02-14T04:45:41.031Z,30.50
2019-02-14T04:46:13.506Z,30.90
2019-02-14T04:46:45.981Z,27.70
2019-02-14T04:47:18.511Z,29.32
2019-02-14T04:47:50.989Z,31.75
2019-02-14T04:48:23.470Z,29.65
2019-02-14T04:48:55.962Z,29.05
2019-02-14T04:49:28.455Z,29.80
2019-02-14T04:50:00.942Z,29.90
2019-02-14T04:50:33.795Z,30.32
2019-02-14T04:51:06.658Z,30.77
2019-02-14T04:51:39.142Z,30.57
2019-02-14T04:52:11.996Z,32.23
2019-02-14T04:52:44.493Z,31.07
2019-02-14T04:53:16.983Z,28.98
2019-02-14T04:53:49.591Z,30.45
2019-02-14T04:54:22.062Z,31.00
2019-02-14T04:54:54.815Z,31.73
2019-02-14T04:55:27.304Z,30.17
2019-02-14T04:56:00.052Z,31.05
2019-02-14T04:56:32.534Z,29.10
2019-02-14T04:57:05.027Z,29.05
2019-02-14T04:57:37.508Z,30.30
2019-02-14T04:58:10.773Z,27.73
2019-02-14T04:58:43.246Z,28.07
2019-02-14T04:59:15.739Z,29.20
2019-02-14T04:59:48.229Z,28.60
2019-02-14T05:00:20.722Z,29.05
2019-02-14T05:00:54.390Z,28.23
2019-02-14T05:01:26.881Z,26.93
2019-02-14T05:01:59.689Z,29.12
2019-02-14T05:02:32.165Z,28.85
2019-02-14T05:03:04.671Z,27.93
2019-02-14T05:03:37.199Z,26.62
2019-02-14T05:04:09.701Z,27.35
2019-02-14T05:04:42.489Z,27.82
2019-02-14T05:05:15.576Z,26.25
2019-02-14T05:05:48.069Z,26.25
2019-02-14T05:06:20.910Z,27.07
2019-02-14T05:06:53.733Z,28.65
2019-02-14T05:07:26.209Z,28.55
2019-02-14T05:07:58.970Z,28.87
2019-02-14T05:08:31.467Z,27.85
2019-02-14T05:09:08.427Z,29.10
2019-02-14T05:09:40.924Z,27.35
2019-02-14T05:10:13.398Z,27.62
2019-02-14T05:10:45.894Z,27.15
2019-02-14T05:11:18.392Z,28.70
2019-02-14T05:11:51.207Z,26.80
2019-02-14T05:12:26.209Z,27.82
2019-02-14T05:12:58.702Z,28.20
2019-02-14T05:13:31.570Z,27.42
2019-02-14T05:14:04.074Z,27.13
2019-02-14T05:14:36.581Z,25.60
2019-02-14T05:15:09.307Z,26.52
2019-02-14T05:15:41.807Z,26.55
2019-02-14T05:16:17.384Z,27.20
2019-02-14T05:16:50.510Z,27.60
2019-02-14T05:17:23.280Z,27.73
2019-02-14T05:17:56.087Z,28.40
2019-02-14T05:18:28.893Z,26.70
2019-02-14T05:19:01.945Z,27.62
2019-02-14T05:19:34.762Z,28.17
2019-02-14T05:20:07.868Z,29.30
2019-02-14T05:20:40.363Z,26.68
2019-02-14T05:21:12.839Z,28.73
2019-02-14T05:21:45.702Z,27.82
2019-02-14T05:22:18.541Z,29.63
2019-02-14T05:22:51.013Z,26.00
2019-02-14T05:23:23.491Z,29.65
2019-02-14T05:23:56.258Z,28.52
2019-02-14T05:24:28.764Z,30.12
2019-02-14T05:25:01.396Z,28.90
2019-02-14T05:25:33.922Z,28.25
2019-02-14T05:26:06.710Z,27.75
2019-02-14T05:26:39.205Z,28.92
2019-02-14T05:27:12.014Z,28.27
2019-02-14T05:27:44.779Z,29.95
2019-02-14T05:28:17.272Z,29.65
2019-02-14T05:28:49.757Z,28.52
2019-02-14T05:29:22.570Z,27.62
2019-02-14T05:29:55.457Z,28.45
2019-02-14T05:30:27.950Z,28.10
2019-02-14T05:31:00.489Z,29.70
2019-02-14T05:31:32.942Z,27.15
2019-02-14T05:32:05.756Z,27.15
2019-02-14T05:32:38.247Z,28.15
2019-02-14T05:33:10.840Z,27.77
2019-02-14T05:33:43.339Z,27.70
2019-02-14T05:34:16.427Z,27.62
2019-02-14T05:34:48.897Z,27.35
2019-02-14T05:35:21.382Z,27.95
2019-02-14T05:35:54.208Z,26.33
2019-02-14T05:36:27.613Z,25.55
2019-02-14T05:37:00.117Z,26.57
2019-02-14T05:37:32.886Z,29.80
2019-02-14T05:38:05.378Z,28.10
2019-02-14T05:38:37.875Z,27.77
2019-02-14T05:39:10.357Z,27.20
2019-02-14T05:39:42.843Z,28.23
2019-02-14T05:40:15.328Z,26.87
2019-02-14T05:40:47.810Z,25.55
2019-02-14T05:41:20.291Z,29.67
2019-02-14T05:41:53.087Z,27.15
2019-02-14T05:42:26.229Z,25.45
2019-02-14T05:42:58.717Z,28.50
2019-02-14T05:43:31.208Z,26.12
2019-02-14T05:44:03.694Z,25.82
2019-02-14T05:44:36.187Z,26.55
2019-02-14T05:45:09.310Z,27.73
2019-02-14T05:45:41.796Z,25.65
2019-02-14T05:46:14.956Z,25.45
2019-02-14T05:46:47.714Z,26.70
2019-02-14T05:47:20.228Z,27.05
2019-02-14T05:47:52.710Z,25.40
2019-02-14T05:48:25.533Z,26.02
2019-02-14T05:48:58.635Z,25.23
2019-02-14T05:49:31.399Z,26.00
2019-02-14T05:50:05.091Z,25.70
2019-02-14T05:50:37.588Z,26.30
2019-02-14T05:51:10.078Z,25.35
2019-02-14T05:51:42.888Z,27.25
2019-02-14T05:52:15.396Z,25.27
2019-02-14T05:52:47.912Z,25.30
2019-02-14T05:53:20.400Z,26.60
2019-02-14T05:53:53.175Z,26.25
2019-02-14T05:54:25.988Z,24.67
2019-02-14T05:54:58.467Z,25.60
2019-02-14T05:55:30.978Z,26.42
2019-02-14T05:56:03.592Z,26.73
2019-02-14T05:56:36.084Z,26.93
2019-02-14T05:57:08.616Z,25.68
2019-02-14T05:57:41.815Z,24.52
2019-02-14T05:58:14.752Z,23.92
2019-02-14T05:58:47.227Z,25.30
2019-02-14T05:59:19.718Z,24.55
2019-02-14T05:59:52.470Z,23.73
2019-02-14T06:00:24.960Z,25.57
2019-02-14T06:00:57.456Z,25.65
2019-02-14T06:01:29.946Z,25.20
2019-02-14T06:02:02.422Z,26.23
2019-02-14T06:02:35.178Z,24.52
2019-02-14T06:03:07.668Z,25.68
2019-02-14T06:03:40.179Z,22.80
2019-02-14T06:04:12.668Z,24.50
2019-02-14T06:04:45.151Z,25.27
2019-02-14T06:05:17.931Z,25.20
2019-02-14T06:05:50.402Z,24.47
2019-02-14T06:06:22.908Z,26.05
2019-02-14T06:07:00.909Z,23.92
2019-02-14T06:07:29.718Z,24.47
2019-02-14T06:08:02.552Z,26.27
2019-02-14T06:08:35.850Z,23.57
2019-02-14T06:09:08.364Z,23.62
2019-02-14T06:09:40.859Z,25.02
2019-02-14T06:10:14.018Z,22.95
2019-02-14T06:10:46.509Z,23.60
2019-02-14T06:11:18.990Z,23.22
2019-02-14T06:11:51.831Z,24.10
2019-02-14T06:12:24.332Z,23.75
2019-02-14T06:12:56.812Z,22.77
2019-02-14T06:13:29.295Z,22.85
2019-02-14T06:14:01.788Z,23.20
2019-02-14T06:14:34.298Z,23.73
2019-02-14T06:15:07.448Z,22.80
2019-02-14T06:15:40.202Z,23.07
2019-02-14T06:16:13.034Z,24.02
2019-02-14T06:16:45.532Z,23.38
2019-02-14T06:17:18.386Z,21.68
2019-02-14T06:17:50.858Z,23.55
2019-02-14T06:18:23.353Z,21.62
2019-02-14T06:18:55.833Z,23.05
2019-02-14T06:19:28.616Z,23.45
2019-02-14T06:20:01.144Z,23.25
2019-02-14T06:20:34.001Z,23.25
2019-02-14T06:21:06.488Z,23.75
2019-02-14T06:21:38.983Z,22.20
2019-02-14T06:22:11.480Z,21.65
2019-02-14T06:22:43.968Z,22.80
2019-02-14T06:23:16.442Z,23.70
2019-02-14T06:23:48.910Z,24.57
2019-02-14T06:24:21.678Z,23.05
2019-02-14T06:24:54.190Z,21.80
2019-02-14T06:25:26.991Z,22.13
2019-02-14T06:25:59.835Z,22.73
2019-02-14T06:26:32.705Z,23.55
2019-02-14T06:27:05.248Z,22.25
2019-02-14T06:27:37.682Z,22.55
2019-02-14T06:28:10.556Z,23.32
2019-02-14T06:28:43.031Z,22.40
2019-02-14T06:29:15.799Z,22.22
2019-02-14T06:29:48.278Z,24.00
2019-02-14T06:30:20.750Z,23.10
2019-02-14T06:30:53.267Z,23.00
2019-02-14T06:31:25.752Z,21.85
2019-02-14T06:31:58.595Z,22.70
2019-02-14T06:32:32.039Z,24.15
2019-02-14T06:33:04.853Z,22.80
2019-02-14T06:33:37.646Z,22.48
2019-02-14T06:34:10.795Z,22.73
2019-02-14T06:34:43.275Z,20.75
2019-02-14T06:35:16.030Z,21.87
2019-02-14T06:35:48.527Z,22.85
2019-02-14T06:36:21.330Z,22.95
2019-02-14T06:36:54.098Z,22.25
2019-02-14T06:37:26.578Z,22.27
2019-02-14T06:37:59.050Z,20.57
2019-02-14T06:38:31.558Z,21.25
2019-02-14T06:39:05.299Z,22.00
2019-02-14T06:39:38.175Z,21.48
2019-02-14T06:40:10.811Z,21.42
2019-02-14T06:40:43.584Z,22.42
2019-02-14T06:41:16.694Z,21.82
2019-02-14T06:41:49.513Z,21.23
2019-02-14T06:42:22.024Z,22.13
2019-02-14T06:42:54.518Z,23.32
2019-02-14T06:43:27.009Z,21.45
2019-02-14T06:43:59.495Z,22.05
2019-02-14T06:44:32.002Z,20.40
2019-02-14T06:45:05.570Z,20.50
2019-02-14T06:45:38.372Z,22.20
2019-02-14T06:46:10.848Z,23.65
2019-02-14T06:46:43.618Z,21.73
2019-02-14T06:47:16.138Z,21.50
2019-02-14T06:47:48.618Z,20.62
2019-02-14T06:48:21.912Z,21.40
2019-02-14T06:48:54.392Z,20.90
2019-02-14T06:49:27.601Z,22.42
2019-02-14T06:50:00.077Z,22.25
2019-02-14T06:50:34.716Z,20.55
2019-02-14T06:51:06.868Z,23.87
2019-02-14T06:51:39.785Z,21.50
2019-02-14T06:52:12.283Z,22.82
2019-02-14T06:52:44.824Z,22.20
2019-02-14T06:53:17.324Z,22.75
2019-02-14T06:53:49.795Z,21.55
2019-02-14T06:54:22.602Z,20.08
2019-02-14T06:54:55.085Z,22.00
2019-02-14T06:55:27.584Z,20.37
2019-02-14T06:56:00.691Z,21.42
2019-02-14T06:56:33.187Z,21.37
2019-02-14T06:57:05.966Z,18.70
2019-02-14T06:57:38.444Z,22.32
2019-02-14T06:58:12.824Z,19.90
2019-02-14T06:58:45.706Z,21.73
2019-02-14T06:59:18.213Z,19.98
2019-02-14T06:59:50.704Z,22.60
2019-02-14T07:00:23.186Z,21.97
2019-02-14T07:00:55.685Z,21.60